createdAt,value
2022-09-06T00:00:16.156Z,19.40
2022-09-06T00:02:43.690Z,19.20
2022-09-06T00:05:12.013Z,19.20
2022-09-06T00:07:39.325Z,19.30
2022-09-06T00:10:07.249Z,19.30
2022-09-06T00:12:34.801Z,19.30
2022-09-06T00:15:02.080Z,19.30
2022-09-06T00:17:29.233Z,19.30
2022-09-06T00:19:56.221Z,19.30
2022-09-06T00:22:23.199Z,19.30
2022-09-06T00:24:50.240Z,19.00
2022-09-06T00:27:17.380Z,19.00
2022-09-06T00:29:44.355Z,19.00
2022-09-06T00:32:11.283Z,18.90
2022-09-06T00:34:38.335Z,18.90
2022-09-06T00:37:05.385Z,19.00
2022-09-06T00:39:32.357Z,19.00
2022-09-06T00:41:59.374Z,19.00
2022-09-06T00:44:26.613Z,19.00
2022-09-06T00:46:54.968Z,19.10
2022-09-06T00:49:26.518Z,19.10
2022-09-06T00:51:58.946Z,19.00
2022-09-06T00:54:26.419Z,19.10
2022-09-06T00:56:54.485Z,19.10
2022-09-06T00:59:21.958Z,19.10
2022-09-06T01:01:49.037Z,19.00
2022-09-06T01:04:16.342Z,19.00
2022-09-06T01:07:18.578Z,19.00
2022-09-06T01:09:45.732Z,18.70
2022-09-06T01:12:43.586Z,18.80
2022-09-06T01:15:16.728Z,18.70
2022-09-06T01:18:16.850Z,18.80
2022-09-06T01:21:20.532Z,18.80
2022-09-06T01:24:30.953Z,18.70
2022-09-06T01:27:19.398Z,18.70
2022-09-06T01:29:55.277Z,18.80
2022-09-06T01:32:42.577Z,18.80
2022-09-06T01:35:38.403Z,18.80
2022-09-06T01:38:07.162Z,18.70
2022-09-06T01:40:37.195Z,18.70
2022-09-06T01:43:10.964Z,18.70
2022-09-06T01:46:15.440Z,18.70
2022-09-06T01:48:59.818Z,18.80
2022-09-06T01:51:31.539Z,18.70
2022-09-06T01:53:58.397Z,18.50
2022-09-06T01:57:08.790Z,18.50
2022-09-06T01:59:44.769Z,18.50
2022-09-06T02:02:20.609Z,18.50
2022-09-06T02:04:58.397Z,18.50
2022-09-06T02:07:27.622Z,18.30
2022-09-06T02:10:06.629Z,18.40
2022-09-06T02:12:37.623Z,18.40
2022-09-06T02:15:13.665Z,18.30
2022-09-06T02:17:47.454Z,18.20
2022-09-06T02:20:22.188Z,18.20
2022-09-06T02:22:50.558Z,18.30
2022-09-06T02:25:26.918Z,18.30
2022-09-06T02:27:55.160Z,18.10
2022-09-06T02:30:22.242Z,18.20
2022-09-06T02:32:57.742Z,18.10
2022-09-06T02:35:25.271Z,18.10
2022-09-06T02:37:52.461Z,18.00
2022-09-06T02:40:20.128Z,18.00
2022-09-06T02:42:47.036Z,18.00
2022-09-06T02:45:14.064Z,18.00
2022-09-06T02:47:41.081Z,17.90
2022-09-06T02:50:08.474Z,17.90
2022-09-06T02:52:35.574Z,17.90
2022-09-06T02:55:02.497Z,17.90
2022-09-06T02:57:29.466Z,17.90
2022-09-06T02:59:56.426Z,17.90
2022-09-06T03:02:23.382Z,17.90
2022-09-06T03:04:50.298Z,17.90
2022-09-06T03:07:17.212Z,17.90
2022-09-06T03:09:44.141Z,17.90
2022-09-06T03:12:11.285Z,17.80
2022-09-06T03:14:38.278Z,17.80
2022-09-06T03:17:05.405Z,17.80
2022-09-06T03:19:32.483Z,17.80
2022-09-06T03:21:59.456Z,17.80
2022-09-06T03:24:26.494Z,17.80
2022-09-06T03:26:53.437Z,17.80
2022-09-06T03:29:20.553Z,17.90
2022-09-06T03:31:47.449Z,17.90
2022-09-06T03:34:14.511Z,17.80
2022-09-06T03:36:41.460Z,17.70
2022-09-06T03:39:08.534Z,17.70
2022-09-06T03:41:35.566Z,17.50
2022-09-06T03:44:03.195Z,17.50
2022-09-06T03:46:30.970Z,17.60
2022-09-06T03:48:58.817Z,17.50
2022-09-06T03:51:25.881Z,17.50
2022-09-06T03:53:52.906Z,17.60
2022-09-06T03:56:20.074Z,17.50
2022-09-06T04:02:20.675Z,17.50
2022-09-06T04:04:47.907Z,17.50
2022-09-06T04:07:14.929Z,17.50
2022-09-06T04:09:41.931Z,17.50
2022-09-06T04:12:09.086Z,17.60
2022-09-06T04:14:36.082Z,17.50
2022-09-06T04:17:03.143Z,17.40
2022-09-06T04:19:30.103Z,17.50
2022-09-06T04:21:57.195Z,17.40
2022-09-06T04:24:24.350Z,17.40
2022-09-06T04:26:51.458Z,17.40
2022-09-06T04:29:18.452Z,17.40
2022-09-06T04:31:45.541Z,17.40
2022-09-06T04:34:12.607Z,17.40
2022-09-06T04:36:40.842Z,17.40
2022-09-06T04:39:07.865Z,17.30
2022-09-06T04:41:34.864Z,17.20
2022-09-06T04:44:01.983Z,17.20
2022-09-06T04:46:30.648Z,17.20
2022-09-06T04:48:58.412Z,17.20
2022-09-06T04:51:25.946Z,17.20
2022-09-06T04:53:53.463Z,17.20
2022-09-06T04:56:23.397Z,17.20
2022-09-06T04:58:51.222Z,17.20
2022-09-06T05:01:18.753Z,17.20
2022-09-06T05:03:45.810Z,17.20
2022-09-06T05:06:18.672Z,17.10
2022-09-06T05:08:45.645Z,17.00
2022-09-06T05:11:12.913Z,17.10
2022-09-06T05:13:40.324Z,17.00
2022-09-06T05:16:08.594Z,17.00
2022-09-06T05:18:35.816Z,17.00
2022-09-06T05:21:03.035Z,16.90
2022-09-06T05:23:30.166Z,16.90
2022-09-06T05:25:57.101Z,16.80
2022-09-06T05:28:26.298Z,16.80
2022-09-06T05:30:56.488Z,16.80
2022-09-06T05:33:23.794Z,16.80
2022-09-06T05:35:50.776Z,16.90
2022-09-06T05:38:19.293Z,16.90
2022-09-06T05:40:47.112Z,16.90
2022-09-06T05:43:14.043Z,16.90
2022-09-06T05:45:41.148Z,16.90
2022-09-06T05:48:08.771Z,16.90
2022-09-06T05:50:35.724Z,17.00
2022-09-06T05:53:02.709Z,17.00
2022-09-06T05:55:29.764Z,17.00
2022-09-06T05:57:56.855Z,17.10
2022-09-06T06:00:23.813Z,17.10
2022-09-06T06:02:51.063Z,17.10
2022-09-06T06:05:19.055Z,17.10
2022-09-06T06:07:46.103Z,17.20
2022-09-06T06:10:12.995Z,17.20
2022-09-06T06:12:39.977Z,17.20
2022-09-06T06:15:07.549Z,17.20
2022-09-06T06:17:34.835Z,17.20
2022-09-06T06:20:02.212Z,17.20
2022-09-06T06:22:29.379Z,17.30
2022-09-06T06:24:56.423Z,17.40
2022-09-06T06:27:23.364Z,17.40
2022-09-06T06:29:50.845Z,17.50
2022-09-06T06:32:17.771Z,17.60
2022-09-06T06:34:44.982Z,17.70
2022-09-06T06:37:12.061Z,17.70
2022-09-06T06:39:41.680Z,17.80
2022-09-06T06:42:09.204Z,17.80
2022-09-06T06:44:49.507Z,17.90
2022-09-06T06:47:16.430Z,18.00
2022-09-06T06:49:43.287Z,18.00
2022-09-06T06:52:11.022Z,18.10
2022-09-06T06:54:38.121Z,18.10
2022-09-06T06:57:05.274Z,18.20
2022-09-06T06:59:33.681Z,18.20
2022-09-06T07:02:00.840Z,18.30
2022-09-06T07:04:27.924Z,18.40
2022-09-06T07:12:30.942Z,18.70
2022-09-06T07:14:57.964Z,18.70
2022-09-06T07:17:24.965Z,18.90
2022-09-06T07:22:42.627Z,18.90
2022-09-06T07:25:12.732Z,19.00
2022-09-06T07:27:48.915Z,19.10
2022-09-06T07:30:19.365Z,19.20
2022-09-06T07:32:49.669Z,19.30
2022-09-06T07:35:16.956Z,19.40
2022-09-06T07:37:44.080Z,19.40
2022-09-06T07:40:11.674Z,19.50
2022-09-06T07:42:38.843Z,19.60
2022-09-06T07:45:06.274Z,19.60
2022-09-06T07:53:11.880Z,19.90
2022-09-06T07:55:45.048Z,20.00
2022-09-06T07:58:11.999Z,20.00
2022-09-06T08:00:41.219Z,20.10
2022-09-06T08:03:08.613Z,20.10
2022-09-06T08:11:10.441Z,20.40
2022-09-06T08:13:38.099Z,20.40
2022-09-06T08:16:07.856Z,20.60
2022-09-06T08:18:36.130Z,20.60
2022-09-06T08:21:14.928Z,20.70
2022-09-06T08:23:49.117Z,20.80
2022-09-06T08:26:17.607Z,20.80
2022-09-06T08:28:45.018Z,21.00
2022-09-06T08:31:17.139Z,21.00
2022-09-06T08:33:44.717Z,21.10
2022-09-06T08:36:12.185Z,21.20
2022-09-06T08:38:39.504Z,21.30
2022-09-06T08:41:21.138Z,21.50
2022-09-06T08:47:06.571Z,21.60
2022-09-06T08:49:37.769Z,21.60
2022-09-06T08:52:25.816Z,21.60
2022-09-06T08:55:21.673Z,21.60
2022-09-06T08:58:06.994Z,21.60
2022-09-06T09:00:36.482Z,21.80
2022-09-06T09:03:16.434Z,21.70
2022-09-06T09:05:47.129Z,21.80
2022-09-06T09:08:19.891Z,21.90
2022-09-06T09:10:50.675Z,22.00
2022-09-06T09:13:28.552Z,22.10
2022-09-06T09:15:55.657Z,22.20
2022-09-06T09:18:29.139Z,22.30
2022-09-06T09:20:57.521Z,22.30
2022-09-06T09:23:24.885Z,22.40
2022-09-06T09:25:55.714Z,22.30
2022-09-06T09:28:26.015Z,22.50
2022-09-06T09:30:55.682Z,22.50
2022-09-06T09:33:35.182Z,22.60
2022-09-06T09:36:07.640Z,22.90
2022-09-06T09:38:46.868Z,22.80
2022-09-06T09:41:39.718Z,22.90
2022-09-06T09:44:11.573Z,22.90
2022-09-06T09:46:40.175Z,23.00
2022-09-06T09:49:12.971Z,23.20
2022-09-06T09:51:45.702Z,23.30
2022-09-06T09:54:31.198Z,23.40
2022-09-06T09:56:58.972Z,23.50
2022-09-06T09:59:36.867Z,23.70
2022-09-06T10:02:23.064Z,23.80
2022-09-06T10:04:53.555Z,23.70
2022-09-06T10:07:23.037Z,23.80
2022-09-06T10:10:10.673Z,24.00
2022-09-06T10:12:40.218Z,23.90
2022-09-06T10:15:12.592Z,24.10
2022-09-06T10:17:52.903Z,24.10
2022-09-06T10:20:21.957Z,24.10
2022-09-06T10:23:18.158Z,24.20
2022-09-06T10:26:14.853Z,24.40
2022-09-06T10:28:42.476Z,24.60
2022-09-06T10:31:36.796Z,24.90
2022-09-06T10:34:17.031Z,24.90
2022-09-06T10:36:59.073Z,24.70
2022-09-06T10:39:35.826Z,24.90
2022-09-06T10:42:23.864Z,25.10
2022-09-06T10:45:28.912Z,24.80
2022-09-06T10:47:58.850Z,25.00
2022-09-06T10:50:50.522Z,24.90
2022-09-06T10:53:51.848Z,25.00
2022-09-06T10:56:23.184Z,25.20
2022-09-06T11:02:03.619Z,25.30
2022-09-06T11:07:36.764Z,25.60
2022-09-06T11:10:24.948Z,25.70
2022-09-06T11:13:00.881Z,25.40
2022-09-06T11:15:32.914Z,25.50
2022-09-06T11:18:28.989Z,25.80
2022-09-06T11:20:56.108Z,25.60
2022-09-06T11:23:41.988Z,25.70
2022-09-06T11:26:23.769Z,26.00
2022-09-06T11:29:06.793Z,26.10
2022-09-06T11:34:37.375Z,26.00
2022-09-06T11:37:08.585Z,26.20
2022-09-06T11:43:02.540Z,26.30
2022-09-06T11:45:52.256Z,26.20
2022-09-06T11:48:34.020Z,26.60
2022-09-06T11:51:08.720Z,26.50
2022-09-06T11:53:59.127Z,26.50
2022-09-06T11:56:34.690Z,26.60
2022-09-06T11:59:19.018Z,26.60
2022-09-06T12:02:07.692Z,26.70
2022-09-06T12:05:00.466Z,26.70
2022-09-06T12:07:49.956Z,27.10
2022-09-06T12:10:42.169Z,27.20
2022-09-06T12:13:47.438Z,27.00
2022-09-06T12:16:17.352Z,27.10
2022-09-06T12:18:47.409Z,26.90
2022-09-06T12:21:35.411Z,27.30
2022-09-06T12:24:03.963Z,27.60
2022-09-06T12:26:55.641Z,27.60
2022-09-06T12:29:27.796Z,27.40
2022-09-06T12:31:58.660Z,27.50
2022-09-06T12:34:30.076Z,27.30
2022-09-06T12:37:07.522Z,27.30
2022-09-06T12:39:35.384Z,27.50
2022-09-06T12:42:03.735Z,27.40
2022-09-06T12:44:34.712Z,27.40
2022-09-06T12:47:17.050Z,27.40
2022-09-06T12:49:44.109Z,27.40
2022-09-06T12:52:16.608Z,27.30
2022-09-06T12:54:49.686Z,27.20
2022-09-06T12:57:25.210Z,27.00
2022-09-06T12:59:59.799Z,27.20
2022-09-06T13:02:43.315Z,27.40
2022-09-06T13:05:12.672Z,27.60
2022-09-06T13:07:45.281Z,27.50
2022-09-06T13:10:16.528Z,27.70
2022-09-06T13:12:44.950Z,27.80
2022-09-06T13:15:31.232Z,28.00
2022-09-06T13:18:22.935Z,28.20
2022-09-06T13:21:14.914Z,27.90
2022-09-06T13:23:53.568Z,28.10
2022-09-06T13:26:38.826Z,28.20
2022-09-06T13:29:18.058Z,28.60
2022-09-06T13:31:57.216Z,28.40
2022-09-06T13:34:32.716Z,28.40
2022-09-06T13:37:09.536Z,28.10
2022-09-06T13:39:44.046Z,28.00
2022-09-06T13:42:31.962Z,28.00
2022-09-06T13:45:29.337Z,27.80
2022-09-06T13:48:07.821Z,28.20
2022-09-06T13:50:43.861Z,28.40
2022-09-06T13:53:11.286Z,28.40
2022-09-06T13:55:38.461Z,28.30
2022-09-06T13:58:06.923Z,27.50
2022-09-06T14:00:36.871Z,27.40
2022-09-06T14:03:05.157Z,27.60
2022-09-06T14:05:34.578Z,28.00
2022-09-06T14:08:02.821Z,28.10
2022-09-06T14:10:30.141Z,28.10
2022-09-06T14:12:57.295Z,28.50
2022-09-06T14:15:25.306Z,28.10
2022-09-06T14:17:52.477Z,28.10
2022-09-06T14:20:19.784Z,27.90
2022-09-06T14:22:47.963Z,27.80
2022-09-06T14:25:15.484Z,27.50
2022-09-06T14:27:42.365Z,27.30
2022-09-06T14:30:10.773Z,27.20
2022-09-06T14:32:37.848Z,27.00
2022-09-06T14:35:05.984Z,27.30
2022-09-06T14:37:34.610Z,27.50
2022-09-06T14:40:01.731Z,27.60
2022-09-06T14:42:29.109Z,27.50
2022-09-06T14:44:56.267Z,27.50
2022-09-06T14:47:23.352Z,27.30
2022-09-06T14:49:50.437Z,27.50
2022-09-06T14:52:17.813Z,27.50
2022-09-06T14:54:44.731Z,27.60
2022-09-06T14:57:11.708Z,27.70
2022-09-06T14:59:38.629Z,27.70
2022-09-06T15:02:05.638Z,27.70
2022-09-06T15:04:33.409Z,27.90
2022-09-06T15:07:00.895Z,27.60
2022-09-06T15:09:28.090Z,27.40
2022-09-06T15:11:55.638Z,27.10
2022-09-06T15:14:29.897Z,27.00
2022-09-06T15:16:59.955Z,27.20
2022-09-06T15:19:28.935Z,27.10
2022-09-06T15:21:57.320Z,26.80
2022-09-06T15:24:24.602Z,26.80
2022-09-06T15:26:51.589Z,26.70
2022-09-06T15:29:18.821Z,26.90
2022-09-06T15:31:50.328Z,27.00
2022-09-06T15:34:23.465Z,26.90
2022-09-06T15:36:51.955Z,27.00
2022-09-06T15:39:19.631Z,27.00
2022-09-06T15:41:46.772Z,26.90
2022-09-06T15:44:16.068Z,26.80
2022-09-06T15:46:48.726Z,26.60
2022-09-06T15:49:27.018Z,26.60
2022-09-06T15:51:56.325Z,26.40
2022-09-06T15:54:43.348Z,26.40
2022-09-06T15:57:10.896Z,26.40
2022-09-06T15:59:39.500Z,26.30
2022-09-06T16:02:14.571Z,26.30
2022-09-06T16:04:41.632Z,26.20
2022-09-06T16:07:12.013Z,26.20
2022-09-06T16:09:40.367Z,26.40
2022-09-06T16:12:07.599Z,26.30
2022-09-06T16:14:35.707Z,26.30
2022-09-06T16:17:02.709Z,26.00
2022-09-06T16:19:29.740Z,25.90
2022-09-06T16:21:57.529Z,25.80
2022-09-06T16:24:24.919Z,25.90
2022-09-06T16:26:51.916Z,26.00
2022-09-06T16:29:20.415Z,25.80
2022-09-06T16:31:48.274Z,25.80
2022-09-06T16:34:15.779Z,25.80
2022-09-06T16:36:42.751Z,25.70
2022-09-06T16:39:09.924Z,25.70
2022-09-06T16:41:45.722Z,25.50
2022-09-06T16:44:18.205Z,25.50
2022-09-06T16:46:49.922Z,25.40
2022-09-06T16:49:19.311Z,25.50
2022-09-06T16:51:47.893Z,25.40
2022-09-06T16:54:15.794Z,25.30
2022-09-06T16:56:43.673Z,25.30
2022-09-06T16:59:12.073Z,25.10
2022-09-06T17:01:43.577Z,25.00
2022-09-06T17:04:10.770Z,25.00
2022-09-06T17:06:47.439Z,25.00
2022-09-06T17:09:18.143Z,25.00
2022-09-06T17:11:46.440Z,25.00
2022-09-06T17:14:13.397Z,25.00
2022-09-06T17:16:59.053Z,25.00
2022-09-06T17:19:26.560Z,24.90
2022-09-06T17:21:53.983Z,24.80
2022-09-06T17:24:21.267Z,24.70
2022-09-06T17:26:48.298Z,24.60
2022-09-06T17:29:15.382Z,24.60
2022-09-06T17:31:42.343Z,24.50
2022-09-06T17:34:09.268Z,24.40
2022-09-06T17:36:37.294Z,24.40
2022-09-06T17:39:07.437Z,24.30
2022-09-06T17:41:38.761Z,24.30
2022-09-06T17:44:11.142Z,24.20
2022-09-06T17:46:47.684Z,24.10
2022-09-06T17:49:25.783Z,24.00
2022-09-06T17:51:52.966Z,23.90
2022-09-06T17:54:20.036Z,23.90
2022-09-06T17:56:46.986Z,23.80
2022-09-06T17:59:15.549Z,23.80
2022-09-06T18:01:44.739Z,23.70
2022-09-06T18:04:13.550Z,23.70
2022-09-06T18:06:42.341Z,23.70
2022-09-06T18:09:11.947Z,23.70
2022-09-06T18:11:40.099Z,23.60
2022-09-06T18:14:10.393Z,23.70
2022-09-06T18:16:40.100Z,23.60
2022-09-06T18:19:08.747Z,23.60
2022-09-06T18:21:38.075Z,23.50
2022-09-06T18:24:05.702Z,23.50
2022-09-06T18:26:33.085Z,23.50
2022-09-06T18:29:00.491Z,23.40
2022-09-06T18:31:27.881Z,23.40
2022-09-06T18:33:59.796Z,23.30
2022-09-06T18:36:31.914Z,23.30
2022-09-06T18:39:04.763Z,23.30
2022-09-06T18:41:51.583Z,23.20
2022-09-06T18:44:18.720Z,23.10
2022-09-06T18:46:46.034Z,23.10
2022-09-06T18:49:15.212Z,23.10
2022-09-06T18:51:47.955Z,23.10
2022-09-06T18:54:15.081Z,23.10
2022-09-06T18:56:44.805Z,23.10
2022-09-06T18:59:13.754Z,23.10
2022-09-06T19:01:41.232Z,23.00
2022-09-06T19:04:09.154Z,23.00
2022-09-06T19:06:37.242Z,22.90
2022-09-06T19:09:07.287Z,22.90
2022-09-06T19:11:35.023Z,22.80
2022-09-06T19:14:02.999Z,22.80
2022-09-06T19:16:31.638Z,22.80
2022-09-06T19:19:10.180Z,22.70
2022-09-06T19:21:41.751Z,22.70
2022-09-06T19:24:11.406Z,22.60
2022-09-06T19:26:41.751Z,22.60
2022-09-06T19:29:13.728Z,22.60
2022-09-06T19:31:40.933Z,22.50
2022-09-06T19:34:08.395Z,22.50
2022-09-06T19:36:36.407Z,22.50
2022-09-06T19:39:10.029Z,22.50
2022-09-06T19:41:40.539Z,22.40
2022-09-06T19:44:09.086Z,22.50
2022-09-06T19:46:37.641Z,22.50
2022-09-06T19:49:08.112Z,22.50
2022-09-06T19:51:37.086Z,22.50
2022-09-06T19:54:08.378Z,22.50
2022-09-06T19:56:38.019Z,22.60
2022-09-06T19:59:12.390Z,22.50
2022-09-06T20:01:44.479Z,22.60
2022-09-06T20:04:14.229Z,22.60
2022-09-06T20:06:41.536Z,22.50
2022-09-06T20:11:51.600Z,22.60
2022-09-06T20:14:19.049Z,22.50
2022-09-06T20:16:47.230Z,22.50
2022-09-06T20:19:15.272Z,22.50
2022-09-06T20:21:45.235Z,22.40
2022-09-06T20:24:12.374Z,22.40
2022-09-06T20:26:39.691Z,22.40
2022-09-06T20:29:07.400Z,22.40
2022-09-06T20:31:35.542Z,22.40
2022-09-06T20:34:07.879Z,22.30
2022-09-06T20:36:35.065Z,22.30
2022-09-06T20:39:02.722Z,22.20
2022-09-06T20:41:29.704Z,22.20
2022-09-06T20:43:58.996Z,22.20
2022-09-06T20:46:28.381Z,22.20
2022-09-06T20:48:57.829Z,22.10
2022-09-06T20:51:25.525Z,22.10
2022-09-06T20:53:57.289Z,22.10
2022-09-06T20:56:33.806Z,22.10
2022-09-06T20:59:04.767Z,22.00
2022-09-06T21:01:41.674Z,22.10
2022-09-06T21:04:10.264Z,22.10
2022-09-06T21:06:40.969Z,22.10
2022-09-06T21:09:11.297Z,22.00
2022-09-06T21:11:38.739Z,22.00
2022-09-06T21:14:08.224Z,21.90
2022-09-06T21:16:39.478Z,21.90
2022-09-06T21:19:10.851Z,22.00
2022-09-06T21:21:39.123Z,22.10
2022-09-06T21:24:07.558Z,22.10
2022-09-06T21:26:34.791Z,22.20
2022-09-06T21:29:02.337Z,22.20
2022-09-06T21:31:31.876Z,21.90
2022-09-06T21:34:05.383Z,21.70
2022-09-06T21:36:37.444Z,21.50
2022-09-06T21:39:09.383Z,22.00
2022-09-06T21:41:38.079Z,22.70
2022-09-06T21:44:06.697Z,22.80
2022-09-06T21:46:36.669Z,22.30
2022-09-06T21:49:07.230Z,21.70
2022-09-06T21:51:35.044Z,21.70
2022-09-06T21:54:05.935Z,21.80
2022-09-06T21:56:34.474Z,21.80
2022-09-06T21:59:02.181Z,21.40
2022-09-06T22:01:33.515Z,21.40
2022-09-06T22:04:02.629Z,21.00
2022-09-06T22:06:31.795Z,20.60
2022-09-06T22:09:00.589Z,20.30
2022-09-06T22:11:30.029Z,20.10
2022-09-06T22:14:06.070Z,20.10
2022-09-06T22:16:36.301Z,20.10
2022-09-06T22:19:07.416Z,20.10
2022-09-06T22:21:35.217Z,20.10
2022-09-06T22:24:06.921Z,20.10
2022-09-06T22:26:36.604Z,20.10
2022-09-06T22:29:07.062Z,20.00
2022-09-06T22:31:35.168Z,20.00
2022-09-06T22:34:02.665Z,20.00
2022-09-06T22:36:29.930Z,20.00
2022-09-06T22:38:57.758Z,20.10
2022-09-06T22:41:27.209Z,19.90
2022-09-06T22:43:54.444Z,19.70
2022-09-06T22:46:21.534Z,19.60
2022-09-06T22:48:49.247Z,19.60
2022-09-06T22:51:16.611Z,19.60
2022-09-06T22:53:44.109Z,19.50
2022-09-06T22:56:11.216Z,19.20
2022-09-06T22:58:38.486Z,19.10
2022-09-06T23:01:12.862Z,19.00
2022-09-06T23:03:41.928Z,19.00
2022-09-06T23:06:09.722Z,18.80
2022-09-06T23:08:38.913Z,18.90
2022-09-06T23:11:11.795Z,18.90
2022-09-06T23:13:38.922Z,18.80
2022-09-06T23:16:08.121Z,18.90
2022-09-06T23:18:35.641Z,19.00
2022-09-06T23:21:11.165Z,18.80
2022-09-06T23:23:39.043Z,18.80
2022-09-06T23:26:09.064Z,18.80
2022-09-06T23:28:37.140Z,18.80
2022-09-06T23:33:36.257Z,18.70
2022-09-06T23:36:08.945Z,18.60
2022-09-06T23:38:37.469Z,18.70
2022-09-06T23:41:05.345Z,18.70
2022-09-06T23:43:32.636Z,18.50
2022-09-06T23:45:59.699Z,18.50
2022-09-06T23:48:26.829Z,18.60
2022-09-06T23:50:53.973Z,18.60
2022-09-06T23:53:21.514Z,18.50
2022-09-06T23:55:48.533Z,18.50
2022-09-06T23:58:16.046Z,18.30
